EDT,Max TemperatureF,Mean TemperatureF,Min TemperatureF,Max Dew PointF,MeanDew PointF,Min DewpointF,Max Humidity, Mean Humidity, Min Humidity, Max Sea Level PressureIn, Mean Sea Level PressureIn, Min Sea Level PressureIn, Max VisibilityMiles, Mean VisibilityMiles, Min VisibilityMiles, Max Wind SpeedMPH, Mean Wind SpeedMPH, Max Gust SpeedMPH,PrecipitationIn, CloudCover, Events, WindDirDegrees
2013-4-1,59,47,34,45,37,10,100,64,28,29.97,29.75,29.71,15,4,0,30,11,39,T,3,Fog-Rain,257
2013-4-2,45,37,29,16,13,10,49,37,25,30.15,30.06,29.99,10,10,10,28,11,33,0.00,2,,285
2013-4-3,47,39,30,16,12,9,47,36,25,30.36,30.23,30.15,10,10,10,26,11,33,0.00,2,,292
2013-4-4,53,39,25,21,16,9,68,45,22,30.44,30.29,30.09,10,10,10,16,6,20,0.00,0,,226
2013-4-5,62,49,36,30,23,14,70,45,19,30.07,29.93,29.80,10,10,10,24,9,32,0.00,1,,317
2013-4-6,54,44,33,20,17,14,52,36,20,30.35,30.26,30.07,20,10,10,16,6,24,0.00,0,,336
2013-4-7,64,53,41,42,34,21,60,50,39,30.28,30.13,29.99,10,10,10,23,9,30,0.00,1,,177
2013-4-8,79,62,44,50,44,40,77,54,31,30.09,30.01,29.94,10,10,10,16,5,24,T,1,,184
2013-4-9,83,70,56,52,49,43,72,48,24,30.03,29.97,29.88,10,10,10,22,7,29,0.00,1,,247
2013-4-10,88,75,61,63,57,51,93,64,35,29.93,29.86,29.75,10,9,2,37,5,46,0.52,4,Rain-Thunderstorm,262
2013-4-11,68,60,52,61,55,44,97,82,67,29.94,29.88,29.80,10,9,1,18,8,26,T,6,Rain,73
2013-4-12,52,49,45,44,43,42,93,82,71,29.92,29.77,29.69,10,6,2,20,8,32,0.63,8,Rain,71
2013-4-13,61,51,41,43,38,33,96,68,39,29.99,29.88,29.79,10,9,2,18,7,24,0.00,4,,291
2013-4-14,63,51,39,39,33,26,85,59,32,30.16,30.09,29.99,10,10,10,22,6,26,0.00,2,,291
2013-4-15,63,55,47,44,38,30,76,60,44,30.34,30.28,30.16,10,10,10,13,7,17,0.01,5,Rain,122
2013-4-16,71,61,50,56,51,43,78,68,57,30.33,30.24,30.13,10,10,10,20,9,26,T,6,Rain,179
2013-4-17,72,64,55,57,45,29,93,58,22,30.26,30.20,30.11,10,10,9,13,5,18,T,5,,12
2013-4-18,63,60,56,57,50,37,90,69,47,30.27,30.17,30.03,10,9,5,14,7,18,0.07,7,Rain,125
2013-4-19,76,63,50,64,60,44,90,77,64,30.03,29.75,29.56,10,8,1,28,12,41,0.97,7,Rain-Thunderstorm,203
2013-4-20,57,49,41,44,31,23,80,55,30,30.36,30.04,29.79,10,10,10,28,13,37,0.03,3,Rain,293
2013-4-21,55,44,32,33,23,20,65,47,28,30.61,30.54,30.38,20,10,10,14,6,18,0.00,0,,19
2013-4-22,56,46,35,34,32,24,89,64,39,30.62,30.55,30.47,10,10,10,17,7,25,0.00,1,,91
2013-4-23,57,51,44,43,38,33,74,64,54,30.45,30.28,30.14,10,10,10,12,5,18,0.00,7,,64
2013-4-24,73,56,39,57,47,39,96,75,53,30.12,29.99,29.79,10,7,1,30,8,38,0.03,4,Rain,194
2013-4-25,62,52,42,37,31,26,62,45,28,30.30,30.20,30.02,10,10,10,30,9,38,T,1,,297
2013-4-26,64,52,39,37,31,22,85,55,25,30.45,30.39,30.31,10,10,7,15,5,22,0.00,0,,311
2013-4-27,70,54,38,36,34,31,82,54,26,30.46,30.37,30.29,10,10,10,10,2,14,0.00,0,,241
2013-4-28,71,58,44,44,38,32,83,57,31,30.31,30.24,30.18,10,10,9,17,6,26,0.01,2,Rain,181
2013-4-29,58,55,52,56,52,36,96,72,47,30.20,30.13,30.09,10,6,2,13,7,18,0.27,8,Rain,132
2013-4-30,69,61,53,54,46,31,100,67,33,30.32,30.23,30.15,10,10,7,16,8,23,0.00,5,,100